Dennis, MA (02638)

3:29 PM EDT on August 03, 2015 (GMT -0400)
Scargo Hill Dennis MA | | Change Station
CLOSE
Current Station
Personal Weather Station
Location: Dennis, MA
Elevation: 133 ft
Nearby Weather Stations

Elev 133 ft 41.74 °N, 70.18 °W | Updated 12 seconds ago

Clear
Clear
84.9 °F
Feels Like 103 °F
N
3.1
Wind Variable Wind from SE
Gusts 9.8 mph

Today
High -- | Low -- °F
--% Chance of Precip.
Yesterday
High -- | Low -- °F
Precip. -- in
5:36 AM 7:56 PM
Waning Gibbous, 84% visible
Pressure 29.84 in
Visibility 10.0 miles
Clouds Clear
Heat Index 103 °F
Dew Point 83 °F
Humidity 94%
Rainfall 0.00 in
Snow Depth Not available.
UV 9 out of 12
Pollen 6.00 out of 12
Air Quality Not available.
Flu Activity Not available.
METAR KHYA 031856Z 19012KT 10SM CLR 28/22 A2984 RMK AO2 SLP104 T02830217

More Conditions Fewer Conditions

Pressure 29.84 in
Visibility 10.0 miles
Clouds Clear
Heat Index 103 °F
Dew Point 83 °F
Humidity 94%
Rainfall 0.00 in
Snow Depth Not available.
UV 9 out of 12
Pollen 6.00 out of 12
Air Quality Not available.
Flu Activity Not available.
METAR KHYA 031856Z 19012KT 10SM CLR 28/22 A2984 RMK AO2 SLP104 T02830217

More Conditions Fewer Conditions

10-Day Weather Forecast

×

Almanac

Astronomy

Aug. 03, 2015 Rise Set
Actual Time
Civil Twilight
Nautical Twilight
Astronomical Twilight
Moon
Length of Visible Light
Length of Day
Tomorrow will be .
, % of the Moon is Illuminated

Today's Extremes

State Highs State Lows

Community

WunderPhotos

Upload Photos

1,843,710 photos uploaded!

WunderBlogs® & News

Nearby

Air Quality

  Air Quality AQ Index Pollutant
Not available.

Snow Depth

Station Depth Elevation

Earthquake Activity

City Distance Mag. Time & Date
Minimum magnitude displayed is 2.5.

Coastal Water Temperatures

Place Temperature

Stations

Nearby Weather Stations

Station Location Temp. Windchill Dew Point Humidity Wind Precip. Elev Updated Type